Terminal Aerodrome Forecast
Issued by NWS

Home | Current Version | Previous Version | Text Only | Print | Product List | Glossary On
Versions: 1 2 3 4 5 6 7 8 9 10 11 12 13 14 15 16 17 18 19 20 21 22 23
000
FTUS46 KLOX 260753 AAA
TAFOXR
TAF AMD
KOXR 260753Z 2608/2706 VRB03KT P6SM BKN009
     FM261000 VRB03KT P6SM OVC012
     FM261800 26010KT P6SM BKN020
     FM262200 26012KT P6SM SCT020
     FM270400 26006KT P6SM SCT020=

USA.gov is the U.S. government's official web portal to all federal, state and local government web resources and services.